Data for 12/09/2007

Time Sea-Level Adjusted Pressure Absolute Pressure Temperature Relative Humidity Dew Point   
(mb) (inHg) (mb) (inHg) (C) (F) (%) (C) (F)
00:05 1022 30.18 851 25.13 -9 15.7 71 -13.5 7.8
00:10 1022 30.18 851 25.13 -9.1 15.6 71 -13.5 7.6
00:15 1022 30.18 851 25.13 -9.2 15.5 71 -13.5 7.7
00:20 1022 30.18 851 25.13 -9.2 15.5 70 -13.7 7.3
00:25 1022 30.18 851 25.13 -9.2 15.5 72 -13.4 8
00:30 1022 30.18 851 25.13 -9.3 15.3 70 -13.8 7.2
00:35 1022 30.18 851 25.13 -9.2 15.4 70 -13.7 7.3
00:40 1022 30.18 851 25.13 -9.2 15.5 71 -13.6 7.6
00:45 1022 30.18 851 25.13 -9.1 15.6 69 -13.8 7.2
00:50 1022 30.18 851 25.13 -9.2 15.4 70 -13.7 7.3
00:55 1021 30.15 851 25.13 -9.3 15.3 71 -13.6 7.6
01:00 1021 30.15 851 25.13 -9.3 15.3 71 -13.7 7.3
01:05 1021 30.15 851 25.13 -9.3 15.2 70 -13.9 7
01:10 1021 30.15 851 25.13 -9.3 15.3 71 -13.6 7.5
01:15 1021 30.15 851 25.13 -9.2 15.5 69 -13.9 7
01:20 1021 30.15 851 25.13 -9.2 15.4 70 -13.8 7.1
01:25 1021 30.15 851 25.13 -9.3 15.2 70 -13.8 7.1
01:30 1021 30.15 851 25.13 -9.3 15.2 70 -13.8 7.1
01:35 1021 30.15 851 25.13 -9.3 15.2 70 -13.8 7.1
01:40 1021 30.15 851 25.13 -9.4 15.2 70 -13.9 7
01:45 1022 30.18 851 25.13 -9.4 15 71 -13.7 7.3
01:50 1021 30.15 851 25.13 -9.5 14.9 73 -13.5 7.7
01:55 1022 30.18 851 25.13 -9.5 14.9 72 -13.7 7.4
02:00 1021 30.15 851 25.13 -9.3 15.3 69 -14 6.8
02:05 1022 30.18 851 25.13 -9.3 15.2 70 -13.8 7.1
02:10 1022 30.18 851 25.13 -9.3 15.3 70 -13.8 7.2
02:15 1021 30.15 851 25.13 -9.4 15 71 -13.7 7.4
02:20 1021 30.15 851 25.13 -9.5 14.9 70 -13.9 6.9
02:25 1021 30.15 851 25.13 -9.6 14.8 71 -13.9 7.1
02:30 1021 30.15 851 25.13 -9.5 14.9 70 -14 6.9
02:35 1021 30.15 851 25.13 -9.8 14.4 72 -13.9 6.9
02:40 1021 30.15 851 25.13 -10 14 70 -14.5 5.9
02:45 1021 30.15 851 25.13 -10.2 13.7 70 -14.7 5.5
02:50 1021 30.15 851 25.13 -10.3 13.4 71 -14.7 5.5
02:55 1021 30.15 851 25.13 -10.6 13 71 -14.9 5.1
03:00 1021 30.15 851 25.13 -10.8 12.5 73 -14.8 5.4
03:05 1021 30.15 851 25.13 -11.1 12 73 -15 5
03:10 1021 30.15 851 25.13 -11.5 11.3 74 -15.3 4.4
03:15 1021 30.15 851 25.13 -11.7 10.9 74 -15.5 4.1
03:20 1021 30.15 851 25.13 -11.7 10.9 74 -15.5 4.1
03:25 1021 30.15 851 25.13 -11.6 11.1 73 -15.5 4.1
03:30 1021 30.15 851 25.13 -11.8 10.9 74 -15.4 4.2
03:35 1021 30.15 851 25.13 -11.9 10.5 74 -15.7 3.7
03:40 1021 30.15 851 25.13 -12.1 10.2 75 -15.7 3.7
03:45 1021 30.15 851 25.13 -12.1 10.3 74 -15.7 3.7
03:50 1021 30.15 851 25.13 -12.1 10.3 74 -15.9 3.4
03:55 1021 30.15 851 25.13 -12.1 10.2 74 -15.9 3.3
04:00 1021 30.15 850 25.1 -12.2 10 74 -15.9 3.3
04:05 1021 30.15 851 25.13 -12.1 10.1 74 -15.9 3.3
04:10 1021 30.15 851 25.13 -12.2 10 74 -16 3.3
04:15 1021 30.15 851 25.13 -12.4 9.6 75 -16 3.1
04:20 1021 30.15 851 25.13 -12.5 9.5 74 -16.2 2.8
04:25 1021 30.15 851 25.13 -12.7 9.2 74 -16.3 2.6
04:30 1021 30.15 851 25.13 -12.7 9.1 74 -16.5 2.4
04:35 1021 30.15 851 25.13 -12.7 9.1 74 -16.4 2.4
04:40 1021 30.15 851 25.13 -12.7 9.2 74 -16.5 2.4
04:45 1021 30.15 851 25.13 -12.6 9.3 73 -16.5 2.2
04:50 1021 30.15 850 25.1 -12.7 9.2 73 -16.5 2.3
04:55 1021 30.15 850 25.1 -12.8 8.9 74 -16.5 2.2
05:00 1021 30.15 850 25.1 -13.1 8.5 75 -16.6 2.1
05:05 1021 30.15 850 25.1 -13.2 8.2 75 -16.7 1.9
05:10 1021 30.15 850 25.1 -13.2 8.2 75 -16.8 1.8
05:15 1021 30.15 850 25.1 -13.3 8.1 75 -16.8 1.8
05:20 1021 30.15 850 25.1 -13.4 7.9 76 -16.8 1.7
05:25 1021 30.15 850 25.1 -13.5 7.8 76 -16.9 1.6
05:30 1021 30.15 850 25.1 -13.5 7.8 76 -16.8 1.7
05:35 1021 30.15 850 25.1 -13.5 7.7 77 -16.7 1.9
05:40 1021 30.15 850 25.1 -13.3 8.1 76 -16.6 2.1
05:45 1021 30.15 850 25.1 -13.1 8.5 75 -16.6 2.1
05:50 1021 30.15 850 25.1 -12.9 8.8 75 -16.5 2.3
05:55 1021 30.15 850 25.1 -12.8 8.9 75 -16.4 2.5
06:00 1021 30.15 850 25.1 -12.9 8.8 75 -16.4 2.4
06:05 1021 30.15 850 25.1 -12.9 8.9 75 -16.5 2.4
06:10 1021 30.15 850 25.1 -13 8.6 73 -16.8 1.7
06:15 1021 30.15 850 25.1 -13.2 8.3 74 -16.9 1.5
06:20 1021 30.15 850 25.1 -13.2 8.2 75 -16.7 1.9
06:25 1021 30.15 851 25.13 -13.2 8.3 74 -16.9 1.6
06:30 1021 30.15 851 25.13 -13.4 7.9 75 -16.8 1.7
06:35 1021 30.15 850 25.1 -13.5 7.8 75 -17 1.4
06:40 1021 30.15 850 25.1 -13.4 7.9 75 -16.9 1.6
06:45 1021 30.15 850 25.1 -13.6 7.5 76 -17.1 1.3
06:50 1021 30.15 850 25.1 -13.7 7.4 75 -17.1 1.1
06:55 1021 30.15 850 25.1 -13.8 7.2 75 -17.3 0.9
07:00 1021 30.15 850 25.1 -13.7 7.4 75 -17.2 1
07:05 1021 30.15 850 25.1 -13.8 7.1 76 -17.3 0.9
07:10 1021 30.15 850 25.1 -14.2 6.5 77 -17.3 0.8
07:15 1021 30.15 850 25.1 -14.2 6.5 79 -17.1 1.2
07:20 1021 30.15 850 25.1 -13.8 7.2 78 -16.9 1.6
07:25 1020 30.12 850 25.1 -13.5 7.7 78 -16.6 2
07:30 1020 30.12 850 25.1 -13.9 7 80 -16.7 2
07:35 1020 30.12 850 25.1 -14.3 6.3 81 -16.9 1.6
07:40 1020 30.12 850 25.1 -14.3 6.2 81 -16.9 1.6
07:45 1020 30.12 850 25.1 -14.4 6.2 82 -16.7 1.9
07:50 1020 30.12 850 25.1 -14.2 6.4 82 -16.7 1.9
07:55 1020 30.12 850 25.1 -14 6.7 81 -16.7 2
08:00 1021 30.15 850 25.1 -14.1 6.6 81 -16.7 2
08:05 1021 30.15 850 25.1 -14 6.9 80 -16.6 2
08:10 1021 30.15 850 25.1 -13.6 7.5 80 -16.4 2.5
08:15 1021 30.15 850 25.1 -13.5 7.8 79 -16.4 2.5
08:20 1021 30.15 850 25.1 -13.3 8.1 78 -16.4 2.5
08:25 1021 30.15 850 25.1 -13.4 7.9 74 -17.1 1.3
08:30 1021 30.15 850 25.1 -13.3 8.1 73 -17.2 1
08:35 1021 30.15 850 25.1 -13.1 8.4 74 -16.7 1.9
08:40 1021 30.15 850 25.1 -12.6 9.3 71 -16.8 1.7
08:45 1021 30.15 850 25.1 -12.3 9.9 70 -16.6 2.1
08:50 1021 30.15 850 25.1 -11.8 10.8 68 -16.6 2.2
08:55 1021 30.15 850 25.1 -12 10.5 68 -16.8 1.8
09:00 1020 30.12 850 25.1 -12.4 9.6 69 -17 1.4
09:05 1020 30.12 850 25.1 -12.7 9.1 71 -17 1.5
09:10 1020 30.12 850 25.1 -12.3 9.8 68 -17.1 1.2
09:15 1020 30.12 850 25.1 -11.7 10.9 66 -16.9 1.6
09:20 1020 30.12 850 25.1 -11 12.2 63 -16.7 2
09:25 1020 30.12 850 25.1 -10.5 13.2 61 -16.5 2.3
09:30 1020 30.12 850 25.1 -10.3 13.4 62 -16.4 2.6
09:35 1020 30.12 850 25.1 -10.1 13.7 61 -16.4 2.5
09:40 1020 30.12 850 25.1 -10.2 13.7 61 -16.4 2.5
09:45 1020 30.12 850 25.1 -10 14 61 -16.1 3
09:50 1020 30.12 849 25.07 -9.8 14.4 60 -16.2 2.8
09:55 1020 30.12 849 25.07 -9.7 14.6 60 -16.1 2.9
10:00 1020 30.12 849 25.07 -9.7 14.6 60 -16 3.3
10:05 1020 30.12 849 25.07 -9.2 15.5 58 -16 3.1
10:10 1020 30.12 849 25.07 -9 15.8 58 -15.8 3.6
10:15 1020 30.12 849 25.07 -8.6 16.4 56 -16 3.2
10:20 1020 30.12 849 25.07 -8.7 16.4 57 -15.7 3.8
10:25 1020 30.12 849 25.07 -8.5 16.8 56 -15.7 3.8
10:30 1020 30.12 849 25.07 -8.3 17 57 -15.4 4.4
10:35 1020 30.12 849 25.07 -8.4 17 58 -15.3 4.5
10:40 1020 30.12 849 25.07 -8.4 16.9 58 -15.4 4.3
10:45 1020 30.12 849 25.07 -8.2 17.2 57 -15.3 4.4
10:50 1020 30.12 849 25.07 -8 17.6 56 -15.3 4.4
10:55 1019 30.09 849 25.07 -7.8 17.9 55 -15.3 4.5
11:00 1019 30.09 849 25.07 -7.7 18.2 56 -15.1 4.8
11:05 1019 30.09 849 25.07 -7 19.5 52 -15.2 4.7
11:10 1019 30.09 848 25.04 -7 19.4 53 -15.2 4.7
11:15 1019 30.09 848 25.04 -7.4 18.7 54 -15.1 4.8
11:20 1019 30.09 848 25.04 -7.3 18.9 54 -15.1 4.8
11:25 1019 30.09 848 25.04 -7.2 19.1 54 -15 5.1
11:30 1019 30.09 848 25.04 -7 19.5 54 -14.7 5.6
11:35 1019 30.09 848 25.04 -6.3 20.6 52 -14.5 5.8
11:40 1019 30.09 848 25.04 -6.3 20.7 53 -14.3 6.3
11:45 1019 30.09 848 25.04 -5.8 21.6 52 -14.2 6.4
11:50 1019 30.09 848 25.04 -5.9 21.4 52 -14.3 6.3
11:55 1019 30.09 848 25.04 -6.4 20.5 56 -13.9 7
12:00 1019 30.09 848 25.04 -6.8 19.7 57 -14 6.7
12:05 1019 30.09 848 25.04 -6.9 19.7 58 -13.9 7
12:10 1019 30.09 848 25.04 -6.9 19.7 59 -13.7 7.4
12:15 1018 30.06 848 25.04 -6.1 21.1 56 -13.4 7.8
12:20 1018 30.06 847 25.01 -5.7 21.8 53 -13.7 7.3
12:25 1018 30.06 847 25.01 -6.3 20.7 57 -13.5 7.7
12:30 1018 30.06 847 25.01 -6 21.2 56 -13.5 7.8
12:35 1018 30.06 847 25.01 -6.1 20.9 56 -13.6 7.5
12:40 1018 30.06 847 25.01 -5.8 21.5 54 -13.7 7.4
12:45 1018 30.06 847 25.01 -5.5 22.1 52 -13.8 7.1
12:50 1018 30.06 847 25.01 -5.4 22.2 53 -13.5 7.6
12:55 1017 30.03 847 25.01 -5.4 22.2 53 -13.5 7.7
13:00 1017 30.03 847 25.01 -5.3 22.5 53 -13.5 7.8
13:05 1017 30.03 847 25.01 -4.8 23.4 52 -13.3 8
13:10 1017 30.03 847 25.01 -4.6 23.7 51 -13.3 8
13:15 1017 30.03 847 25.01 -4.8 23.3 52 -13.3 8.1
13:20 1017 30.03 846 24.98 -5.1 22.7 55 -12.9 8.8
13:25 1017 30.03 846 24.98 -5.7 21.7 55 -13.3 8.1
13:30 1017 30.03 846 24.98 -5.3 22.5 57 -12.6 9.3
13:35 1017 30.03 846 24.98 -5.8 21.5 56 -13.2 8.3
13:40 1017 30.03 846 24.98 -6.8 19.8 60 -13.3 8
13:45 1017 30.03 846 24.98 -5.8 21.6 54 -13.7 7.3
13:50 1017 30.03 846 24.98 -5.8 21.5 58 -12.8 8.9
13:55 1017 30.03 846 24.98 -6.6 20 56 -13.9 6.9
14:00 1017 30.03 846 24.98 -6.5 20.3 57 -13.6 7.5
14:05 1017 30.03 846 24.98 -5.3 22.5 51 -13.8 7.1
14:10 1017 30.03 846 24.98 -6.1 21.1 57 -13.2 8.3
14:15 1017 30.03 846 24.98 -5.5 22.1 52 -13.9 6.9
14:20 1017 30.03 846 24.98 -5.1 22.8 54 -13.1 8.4
14:25 1017 30.03 846 24.98 -4.9 23.2 50 -13.8 7.2
14:30 1017 30.03 846 24.98 -4.5 23.9 51 -13.2 8.3
14:35 1017 30.03 846 24.98 -4.6 23.8 50 -13.5 7.7
14:40 1017 30.03 846 24.98 -5.4 22.3 52 -13.8 7.2
14:45 1016 30 846 24.98 -5.2 22.6 51 -13.8 7.1
14:50 1016 30 846 24.98 -4.9 23.1 51 -13.5 7.6
14:55 1016 30 846 24.98 -5 22.9 50 -13.9 7
15:00 1016 30 845 24.95 -4.9 23.2 50 -13.8 7.2
15:05 1016 30 845 24.95 -4.4 24.1 48 -13.8 7.2
15:10 1016 30 845 24.95 -4.5 23.9 50 -13.5 7.7
15:15 1016 30 845 24.95 -4.2 24.4 49 -13.6 7.6
15:20 1016 30 845 24.95 -4.8 23.4 52 -13.1 8.4
15:25 1016 30 845 24.95 -5.7 21.7 54 -13.7 7.4
15:30 1016 30 845 24.95 -5.6 22 53 -13.7 7.4
15:35 1016 30 845 24.95 -4.9 23.2 52 -13.4 7.9
15:40 1016 30 845 24.95 -4.5 23.9 52 -12.9 8.8
15:45 1016 30 845 24.95 -4.9 23.1 54 -12.8 8.9
15:50 1016 30 845 24.95 -5 23 54 -12.9 8.8
15:55 1016 30 845 24.95 -5.4 22.2 56 -12.8 9
16:00 1016 30 845 24.95 -6 21.1 59 -12.8 8.9
16:05 1016 30 845 24.95 -6.5 20.4 60 -13.1 8.5
16:10 1016 30 845 24.95 -6.4 20.5 60 -12.9 8.7
16:15 1016 30 845 24.95 -6.5 20.3 61 -13 8.7
16:20 1016 30 845 24.95 -6.7 19.9 61 -13.1 8.5
16:25 1016 30 845 24.95 -6.8 19.7 62 -13 8.5
16:30 1016 30 845 24.95 -6.9 19.6 62 -13.1 8.4
16:35 1016 30 845 24.95 -7 19.4 61 -13.3 8
16:40 1016 30 845 24.95 -7 19.4 62 -13.1 8.5
16:45 1016 30 845 24.95 -7 19.3 62 -13.2 8.3
16:50 1016 30 845 24.95 -7.5 18.6 64 -13.2 8.3
16:55 1016 30 845 24.95 -7.5 18.5 66 -12.9 8.8
17:00 1016 30 845 24.95 -7.8 17.9 66 -13.2 8.3
17:05 1016 30 845 24.95 -8 17.7 67 -13.1 8.4
17:10 1016 30 845 24.95 -8 17.6 68 -12.9 8.8
17:15 1016 30 845 24.95 -8.1 17.4 68 -13.1 8.5
17:20 1016 30 845 24.95 -8.1 17.4 69 -12.9 8.8
17:25 1015 29.97 845 24.95 -8.2 17.3 69 -12.9 8.8
17:30 1015 29.97 845 24.95 -8.3 17.1 69 -13 8.5
17:35 1016 30 845 24.95 -8.3 17.1 68 -13.3 8.1
17:40 1016 30 845 24.95 -8.2 17.2 69 -13 8.6
17:45 1016 30 845 24.95 -8.3 17.1 69 -13 8.7
17:50 1016 30 845 24.95 -8.4 16.8 69 -13.1 8.5
17:55 1016 30 845 24.95 -8.2 17.2 68 -13.1 8.4
18:00 1016 30 845 24.95 -7.8 18.1 67 -12.9 8.8
18:05 1016 30 845 24.95 -7.6 18.3 68 -12.5 9.5
18:10 1016 30 845 24.95 -7.8 18.1 69 -12.5 9.5
18:15 1016 30 845 24.95 -7.8 17.9 70 -12.5 9.6
18:20 1016 30 845 24.95 -7.9 17.9 70 -12.3 9.8
18:25 1016 30 845 24.95 -8 17.6 70 -12.5 9.4
18:30 1016 30 845 24.95 -8 17.7 69 -12.6 9.3
18:35 1016 30 845 24.95 -8.2 17.2 71 -12.5 9.4
18:40 1016 30 845 24.95 -8.3 17.1 71 -12.6 9.3
18:45 1016 30 845 24.95 -8.3 17 70 -12.8 9
18:50 1016 30 845 24.95 -8.2 17.2 70 -12.8 8.9
18:55 1016 30 845 24.95 -7.8 17.9 67 -12.9 8.8
19:00 1016 30 845 24.95 -7.4 18.6 66 -12.7 9.1
19:05 1016 30 845 24.95 -7.2 19.1 64 -12.9 8.7
19:10 1016 30 845 24.95 -7 19.4 63 -12.8 8.9
19:15 1016 30 845 24.95 -6.9 19.6 64 -12.7 9.2
19:20 1016 30 845 24.95 -6.9 19.5 64 -12.6 9.4
19:25 1016 30 845 24.95 -7.2 19.1 64 -12.8 8.9
19:30 1016 30 845 24.95 -7.3 18.9 68 -12.2 10.1
19:35 1016 30 845 24.95 -7.5 18.5 69 -12.2 10
19:40 1016 30 845 24.95 -7.5 18.5 68 -12.4 9.7
19:45 1016 30 845 24.95 -7.4 18.6 67 -12.5 9.5
19:50 1016 30 845 24.95 -7.4 18.7 71 -11.9 10.6
19:55 1016 30 845 24.95 -7.3 18.8 69 -12.1 10.3
20:00 1016 30 845 24.95 -7.1 19.3 67 -12.2 10.1
20:05 1016 30 845 24.95 -6.8 19.8 66 -12.1 10.3
20:10 1016 30 845 24.95 -6.8 19.7 68 -11.7 11
20:15 1016 30 845 24.95 -7 19.5 72 -11.3 11.7
20:20 1016 30 845 24.95 -7.1 19.2 71 -11.6 11.1
20:25 1016 30 845 24.95 -6.8 19.7 69 -11.6 11.1
20:30 1016 30 845 24.95 -6.5 20.3 71 -11 12.3
20:35 1015 29.97 845 24.95 -6.5 20.3 70 -11.1 11.9
20:40 1016 30 845 24.95 -6.4 20.5 68 -11.4 11.4
20:45 1016 30 845 24.95 -6.4 20.4 69 -11.2 11.8
20:50 1016 30 845 24.95 -6.3 20.6 68 -11.4 11.5
20:55 1016 30 845 24.95 -6.1 21 66 -11.4 11.5
21:00 1016 30 845 24.95 -5.9 21.4 67 -11 12.1
21:05 1016 30 845 24.95 -5.7 21.8 68 -10.6 12.9
21:10 1016 30 845 24.95 -5.6 21.9 64 -11.4 11.5
21:15 1016 30 845 24.95 -5.3 22.4 59 -12.1 10.2
21:20 1016 30 845 24.95 -5.1 22.8 57 -12.3 9.9
21:25 1016 30 845 24.95 -5.1 22.8 58 -12.2 10.1
21:30 1016 30 845 24.95 -5.1 22.7 59 -12 10.4
21:35 1016 30 845 24.95 -5.2 22.6 59 -12 10.4
21:40 1016 30 845 24.95 -5.4 22.4 59 -12.2 10
21:45 1016 30 845 24.95 -5.3 22.4 59 -12.2 10
21:50 1016 30 845 24.95 -5.3 22.5 59 -12.2 10.1
21:55 1016 30 845 24.95 -5.4 22.4 60 -11.9 10.5
22:00 1016 30 845 24.95 -5.4 22.2 59 -12.2 10.1
22:05 1016 30 845 24.95 -5.6 21.9 60 -12.2 10.1
22:10 1016 30 845 24.95 -5.8 21.6 63 -11.8 10.7
22:15 1016 30 845 24.95 -6 21.2 61 -12.3 9.8
22:20 1016 30 845 24.95 -5.7 21.7 60 -12.4 9.7
22:25 1016 30 845 24.95 -5.4 22.2 60 -12.1 10.2
22:30 1016 30 845 24.95 -5.6 22 62 -11.7 11
22:35 1016 30 845 24.95 -5.6 21.8 60 -12.2 10.1
22:40 1016 30 845 24.95 -5.8 21.6 60 -12.3 9.9
22:45 1016 30 845 24.95 -5.6 21.9 61 -11.9 10.6
22:50 1016 30 845 24.95 -5.3 22.4 61 -11.7 10.9
22:55 1016 30 845 24.95 -5.3 22.5 63 -11.4 11.5
23:00 1016 30 845 24.95 -5.4 22.4 63 -11.3 11.6
23:05 1016 30 845 24.95 -5.3 22.4 65 -11 12.2
23:10 1016 30 845 24.95 -5.7 21.7 68 -10.8 12.6
23:15 1016 30 845 24.95 -5.8 21.6 69 -10.6 12.9
23:20 1016 30 845 24.95 -5.8 21.5 69 -10.6 12.8
23:25 1015 29.97 845 24.95 -5.8 21.5 70 -10.5 13.1
23:30 1015 29.97 845 24.95 -5.7 21.7 70 -10.4 13.3
23:35 1015 29.97 845 24.95 -5.6 21.9 69 -10.5 13.2
23:40 1015 29.97 845 24.95 -5.5 22 70 -10.2 13.6
23:45 1015 29.97 845 24.95 -5.4 22.2 68 -10.3 13.4
23:50 1015 29.97 844 24.92 -5.2 22.7 68 -10.3 13.5
23:55 1015 29.97 844 24.92 -5 23 67 -10.1 13.8
24:00 1015 29.97 844 24.92 -5 23 69 -9.8 14.3